sensor_id;sensor_type;location;lat;lon;timestamp;pressure;altitude;pressure_sealevel;temperature;humidity
50592;BME280;36548;50.506;30.834;2022-11-18T00:32:18;98978.70;;;-2.07;68.70
50592;BME280;36548;50.506;30.834;2022-11-18T00:33:35;98977.30;;;-1.92;68.58
50592;BME280;36548;50.506;30.834;2022-11-18T00:34:46;98986.17;;;-1.94;67.91
50592;BME280;36548;50.506;30.834;2022-11-18T00:36:02;98989.30;;;-1.83;67.61
50592;BME280;36548;50.506;30.834;2022-11-18T00:37:12;98977.35;;;-1.93;66.83
50592;BME280;36548;50.506;30.834;2022-11-18T00:38:20;98986.53;;;-2.05;67.03
50592;BME280;36548;50.506;30.834;2022-11-18T00:39:30;98973.88;;;-1.94;66.84
50592;BME280;36548;50.506;30.834;2022-11-18T00:40:46;98973.63;;;-1.86;66.86
50592;BME280;36548;50.506;30.834;2022-11-18T00:41:55;98981.77;;;-1.94;66.86
50592;BME280;36548;50.506;30.834;2022-11-18T00:43:29;98975.61;;;-1.67;66.77
50592;BME280;36548;50.506;30.834;2022-11-18T00:44:38;98977.70;;;-1.77;66.32
50592;BME280;36548;50.506;30.834;2022-11-18T00:45:54;98973.69;;;-1.62;66.21
50592;BME280;36548;50.506;30.834;2022-11-18T00:47:04;98984.29;;;-1.65;66.11
50592;BME280;36548;50.506;30.834;2022-11-18T00:48:20;98975.77;;;-1.47;66.27
50592;BME280;36548;50.506;30.834;2022-11-18T00:49:29;98978.45;;;-1.48;66.49
50592;BME280;36548;50.506;30.834;2022-11-18T00:50:44;98985.67;;;-1.30;65.87
50592;BME280;36548;50.506;30.834;2022-11-18T00:51:53;98978.66;;;-1.55;65.23
50592;BME280;36548;50.506;30.834;2022-11-18T00:53:02;98982.16;;;-1.54;65.29
50592;BME280;36548;50.506;30.834;2022-11-18T00:54:18;98972.05;;;-1.41;65.33
50592;BME280;36548;50.506;30.834;2022-11-18T00:55:27;98981.67;;;-1.40;65.70
50592;BME280;36548;50.506;30.834;2022-11-18T00:56:38;98975.99;;;-1.29;65.93
50592;BME280;36548;50.506;30.834;2022-11-18T00:57:47;98974.69;;;-1.41;64.43
50592;BME280;36548;50.506;30.834;2022-11-18T00:59:03;98977.09;;;-1.11;65.39
50592;BME280;36548;50.506;30.834;2022-11-18T01:00:13;98981.51;;;-1.12;65.37
50592;BME280;36548;50.506;30.834;2022-11-18T01:01:29;98971.03;;;-1.13;63.91
50592;BME280;36548;50.506;30.834;2022-11-18T01:02:38;98974.64;;;-1.16;64.26
50592;BME280;36548;50.506;30.834;2022-11-18T01:03:49;98977.02;;;-1.10;64.52
50592;BME280;36548;50.506;30.834;2022-11-18T01:05:00;98977.21;;;-1.14;63.83
50592;BME280;36548;50.506;30.834;2022-11-18T01:06:15;98979.27;;;-0.99;64.66
50592;BME280;36548;50.506;30.834;2022-11-18T01:07:25;98982.02;;;-1.02;64.81
50592;BME280;36548;50.506;30.834;2022-11-18T01:08:41;98971.87;;;-0.89;64.12
50592;BME280;36548;50.506;30.834;2022-11-18T01:09:50;98971.61;;;-1.05;63.29
50592;BME280;36548;50.506;30.834;2022-11-18T01:11:05;98969.67;;;-1.00;63.08
50592;BME280;36548;50.506;30.834;2022-11-18T01:12:34;98976.75;;;-1.26;63.16
50592;BME280;36548;50.506;30.834;2022-11-18T01:14:09;98971.73;;;-1.08;63.18
50592;BME280;36548;50.506;30.834;2022-11-18T01:15:18;98977.97;;;-1.11;63.71
50592;BME280;36548;50.506;30.834;2022-11-18T01:16:27;98978.60;;;-1.04;63.55
50592;BME280;36548;50.506;30.834;2022-11-18T01:17:37;98974.18;;;-1.04;62.78
50592;BME280;36548;50.506;30.834;2022-11-18T01:18:53;98977.89;;;-0.86;62.72
50592;BME280;36548;50.506;30.834;2022-11-18T01:20:03;98990.50;;;-1.17;61.38
50592;BME280;36548;50.506;30.834;2022-11-18T01:21:13;98983.89;;;-1.29;61.69
50592;BME280;36548;50.506;30.834;2022-11-18T01:22:22;98984.83;;;-1.30;61.69
50592;BME280;36548;50.506;30.834;2022-11-18T01:23:32;98983.05;;;-1.30;61.87
50592;BME280;36548;50.506;30.834;2022-11-18T01:24:41;98980.09;;;-1.21;62.40
50592;BME280;36548;50.506;30.834;2022-11-18T01:25:50;98973.48;;;-1.09;63.02
50592;BME280;36548;50.506;30.834;2022-11-18T01:27:00;98973.34;;;-1.04;62.35
50592;BME280;36548;50.506;30.834;2022-11-18T01:28:18;98976.11;;;-0.85;61.97
50592;BME280;36548;50.506;30.834;2022-11-18T01:29:29;98976.51;;;-0.96;61.83
50592;BME280;36548;50.506;30.834;2022-11-18T01:30:45;98975.26;;;-0.86;61.61
50592;BME280;36548;50.506;30.834;2022-11-18T01:31:55;98975.38;;;-0.89;62.24
50592;BME280;36548;50.506;30.834;2022-11-18T01:33:07;98979.49;;;-0.81;62.30
50592;BME280;36548;50.506;30.834;2022-11-18T01:34:22;98981.34;;;-0.61;62.65
50592;BME280;36548;50.506;30.834;2022-11-18T01:36:51;98981.24;;;-0.58;61.13
50592;BME280;36548;50.506;30.834;2022-11-18T01:38:01;98984.45;;;-0.74;61.24
50592;BME280;36548;50.506;30.834;2022-11-18T01:39:16;98974.31;;;-0.61;61.81
50592;BME280;36548;50.506;30.834;2022-11-18T01:40:27;98976.52;;;-0.72;61.89
50592;BME280;36548;50.506;30.834;2022-11-18T01:41:37;98990.41;;;-0.69;62.18
50592;BME280;36548;50.506;30.834;2022-11-18T01:42:52;98979.89;;;-0.92;61.89
50592;BME280;36548;50.506;30.834;2022-11-18T01:44:04;98985.80;;;-1.09;62.09
50592;BME280;36548;50.506;30.834;2022-11-18T01:45:40;98975.84;;;-1.01;62.55
50592;BME280;36548;50.506;30.834;2022-11-18T01:46:50;98983.30;;;-1.12;62.75
50592;BME280;36548;50.506;30.834;2022-11-18T01:48:07;98977.60;;;-1.01;63.20
50592;BME280;36548;50.506;30.834;2022-11-18T01:49:17;98981.56;;;-0.90;63.76
50592;BME280;36548;50.506;30.834;2022-11-18T01:50:34;98978.14;;;-0.70;63.26
50592;BME280;36548;50.506;30.834;2022-11-18T01:51:54;98987.20;;;-0.77;62.77
50592;BME280;36548;50.506;30.834;2022-11-18T01:53:08;98988.66;;;-0.68;63.13
50592;BME280;36548;50.506;30.834;2022-11-18T01:55:47;98973.63;;;-0.44;62.76
50592;BME280;36548;50.506;30.834;2022-11-18T01:57:00;98975.52;;;-0.47;63.04
50592;BME280;36548;50.506;30.834;2022-11-18T01:58:23;98971.78;;;-0.42;62.67
50592;BME280;36548;50.506;30.834;2022-11-18T01:59:41;98970.38;;;-0.28;61.86
50592;BME280;36548;50.506;30.834;2022-11-18T02:00:54;98980.44;;;-0.38;61.44
50592;BME280;36548;50.506;30.834;2022-11-18T02:02:11;98979.33;;;-0.32;61.47
50592;BME280;36548;50.506;30.834;2022-11-18T02:03:22;98981.59;;;-0.67;60.78
50592;BME280;36548;50.506;30.834;2022-11-18T02:04:32;98982.50;;;-0.69;61.66
50592;BME280;36548;50.506;30.834;2022-11-18T02:05:45;98992.61;;;-0.80;61.42
50592;BME280;36548;50.506;30.834;2022-11-18T02:07:01;98983.12;;;-0.62;62.08
50592;BME280;36548;50.506;30.834;2022-11-18T02:08:12;98993.11;;;-0.70;62.18
50592;BME280;36548;50.506;30.834;2022-11-18T02:09:28;98995.48;;;-0.64;61.75
50592;BME280;36548;50.506;30.834;2022-11-18T02:10:38;98993.23;;;-0.73;61.95
50592;BME280;36548;50.506;30.834;2022-11-18T02:11:47;98995.95;;;-0.98;62.29
50592;BME280;36548;50.506;30.834;2022-11-18T02:13:06;98987.45;;;-0.83;62.80
50592;BME280;36548;50.506;30.834;2022-11-18T02:14:18;98992.80;;;-0.84;63.19
50592;BME280;36548;50.506;30.834;2022-11-18T02:15:49;98987.20;;;-0.77;62.81
50592;BME280;36548;50.506;30.834;2022-11-18T02:18:32;98990.73;;;-1.00;63.11
50592;BME280;36548;50.506;30.834;2022-11-18T02:20:00;98990.09;;;-0.83;63.01
50592;BME280;36548;50.506;30.834;2022-11-18T02:23:24;98993.95;;;-0.70;63.57
50592;BME280;36548;50.506;30.834;2022-11-18T02:26:44;98988.89;;;-0.52;62.86
50592;BME280;36548;50.506;30.834;2022-11-18T02:31:28;98989.39;;;-0.42;62.52
50592;BME280;36548;50.506;30.834;2022-11-18T02:34:36;98985.16;;;-0.46;62.46
50592;BME280;36548;50.506;30.834;2022-11-18T02:38:33;98987.23;;;-0.32;62.59
50592;BME280;36548;50.506;30.834;2022-11-18T02:41:22;98988.90;;;-0.30;61.91
50592;BME280;36548;50.506;30.834;2022-11-18T02:42:41;98987.50;;;-0.39;60.70
50592;BME280;36548;50.506;30.834;2022-11-18T02:43:54;98995.40;;;-0.61;61.52
50592;BME280;36548;50.506;30.834;2022-11-18T02:45:13;98994.58;;;-0.63;61.32
50592;BME280;36548;50.506;30.834;2022-11-18T02:46:26;99002.39;;;-0.83;61.66
50592;BME280;36548;50.506;30.834;2022-11-18T02:47:37;99000.45;;;-0.78;61.80
50592;BME280;36548;50.506;30.834;2022-11-18T02:48:54;99008.69;;;-0.88;62.22
50592;BME280;36548;50.506;30.834;2022-11-18T02:50:07;99003.85;;;-0.98;62.36
50592;BME280;36548;50.506;30.834;2022-11-18T02:51:24;99000.97;;;-0.92;62.73
50592;BME280;36548;50.506;30.834;2022-11-18T02:52:41;98998.62;;;-0.76;62.45
50592;BME280;36548;50.506;30.834;2022-11-18T02:53:52;99014.59;;;-0.81;62.80
50592;BME280;36548;50.506;30.834;2022-11-18T02:55:06;99003.71;;;-0.72;62.83
50592;BME280;36548;50.506;30.834;2022-11-18T02:56:18;99005.53;;;-0.74;61.85
50592;BME280;36548;50.506;30.834;2022-11-18T02:57:32;99006.34;;;-0.72;61.60
50592;BME280;36548;50.506;30.834;2022-11-18T02:58:42;99010.45;;;-0.64;62.36
50592;BME280;36548;50.506;30.834;2022-11-18T02:59:51;99011.27;;;-0.62;61.70
50592;BME280;36548;50.506;30.834;2022-11-18T03:01:01;99010.17;;;-0.57;62.05
50592;BME280;36548;50.506;30.834;2022-11-18T03:03:35;99011.70;;;-0.51;61.26
50592;BME280;36548;50.506;30.834;2022-11-18T03:04:48;99011.68;;;-0.73;60.88
50592;BME280;36548;50.506;30.834;2022-11-18T03:06:15;99005.25;;;-0.66;61.77
50592;BME280;36548;50.506;30.834;2022-11-18T03:07:30;99008.69;;;-0.42;62.14
50592;BME280;36548;50.506;30.834;2022-11-18T03:10:03;99006.55;;;-0.32;60.37
50592;BME280;36548;50.506;30.834;2022-11-18T03:11:25;99016.07;;;-0.50;59.78
50592;BME280;36548;50.506;30.834;2022-11-18T03:13:01;99004.78;;;-0.31;60.71
50592;BME280;36548;50.506;30.834;2022-11-18T03:14:31;99014.09;;;-0.45;59.71
50592;BME280;36548;50.506;30.834;2022-11-18T03:15:51;99012.69;;;-0.54;60.07
50592;BME280;36548;50.506;30.834;2022-11-18T03:17:08;99008.45;;;-0.58;60.85
50592;BME280;36548;50.506;30.834;2022-11-18T03:18:36;99009.86;;;-0.49;61.56
50592;BME280;36548;50.506;30.834;2022-11-18T03:20:22;98998.59;;;-0.30;61.00
50592;BME280;36548;50.506;30.834;2022-11-18T03:23:24;99009.44;;;-0.16;61.00
50592;BME280;36548;50.506;30.834;2022-11-18T03:24:34;99007.09;;;-0.24;60.25
50592;BME280;36548;50.506;30.834;2022-11-18T03:25:52;99006.19;;;-0.23;60.21
50592;BME280;36548;50.506;30.834;2022-11-18T03:27:05;99003.61;;;-0.24;59.93
50592;BME280;36548;50.506;30.834;2022-11-18T03:29:48;99014.71;;;-0.16;60.31
50592;BME280;36548;50.506;30.834;2022-11-18T03:31:11;99006.37;;;-0.05;59.34
50592;BME280;36548;50.506;30.834;2022-11-18T03:32:23;99015.45;;;-0.12;59.94
50592;BME280;36548;50.506;30.834;2022-11-18T03:33:36;99008.27;;;-0.09;59.41
50592;BME280;36548;50.506;30.834;2022-11-18T03:36:19;99002.75;;;-0.03;59.73
50592;BME280;36548;50.506;30.834;2022-11-18T03:37:32;99003.80;;;-0.07;59.71
50592;BME280;36548;50.506;30.834;2022-11-18T03:38:51;99000.69;;;0.04;58.95
50592;BME280;36548;50.506;30.834;2022-11-18T03:41:23;99005.48;;;-0.06;58.65
50592;BME280;36548;50.506;30.834;2022-11-18T03:43:11;99009.23;;;-0.11;59.22
50592;BME280;36548;50.506;30.834;2022-11-18T03:44:29;99005.80;;;0.09;59.67
50592;BME280;36548;50.506;30.834;2022-11-18T03:48:29;99007.31;;;0.14;58.53
50592;BME280;36548;50.506;30.834;2022-11-18T03:49:51;99010.46;;;0.02;58.85
50592;BME280;36548;50.506;30.834;2022-11-18T03:51:13;99010.40;;;0.04;58.29
50592;BME280;36548;50.506;30.834;2022-11-18T03:52:26;99017.70;;;-0.03;59.10
50592;BME280;36548;50.506;30.834;2022-11-18T03:53:39;99013.17;;;0.01;59.22
50592;BME280;36548;50.506;30.834;2022-11-18T03:54:57;99016.89;;;0.17;59.27
50592;BME280;36548;50.506;30.834;2022-11-18T03:56:17;99022.41;;;0.11;59.22
50592;BME280;36548;50.506;30.834;2022-11-18T03:57:53;99016.89;;;0.17;58.05
50592;BME280;36548;50.506;30.834;2022-11-18T03:59:06;99028.25;;;-0.03;58.19
50592;BME280;36548;50.506;30.834;2022-11-18T04:00:21;99024.27;;;0.09;58.77
50592;BME280;36548;50.506;30.834;2022-11-18T04:01:38;99022.91;;;-0.02;59.07
50592;BME280;36548;50.506;30.834;2022-11-18T04:02:48;99030.79;;;0.00;59.38
50592;BME280;36548;50.506;30.834;2022-11-18T04:04:04;99022.23;;;0.15;59.51
50592;BME280;36548;50.506;30.834;2022-11-18T04:05:16;99025.31;;;0.05;58.89
50592;BME280;36548;50.506;30.834;2022-11-18T04:06:35;99024.20;;;0.10;58.89
50592;BME280;36548;50.506;30.834;2022-11-18T04:07:57;99022.12;;;-0.04;59.09
50592;BME280;36548;50.506;30.834;2022-11-18T04:09:28;99024.84;;;-0.05;59.31
50592;BME280;36548;50.506;30.834;2022-11-18T04:12:16;99023.86;;;0.18;60.09
50592;BME280;36548;50.506;30.834;2022-11-18T04:13:30;99031.20;;;0.11;59.51
50592;BME280;36548;50.506;30.834;2022-11-18T04:14:42;99030.39;;;0.09;59.05
50592;BME280;36548;50.506;30.834;2022-11-18T04:15:59;99027.98;;;0.25;59.21
50592;BME280;36548;50.506;30.834;2022-11-18T04:18:29;99025.01;;;0.33;59.00
50592;BME280;36548;50.506;30.834;2022-11-18T04:19:39;99030.70;;;0.24;58.98
50592;BME280;36548;50.506;30.834;2022-11-18T04:20:55;99022.97;;;0.40;59.35
50592;BME280;36548;50.506;30.834;2022-11-18T04:22:03;99027.65;;;0.33;59.11
50592;BME280;36548;50.506;30.834;2022-11-18T04:23:13;99029.38;;;0.34;59.07
50592;BME280;36548;50.506;30.834;2022-11-18T04:24:28;99024.42;;;0.47;58.84
50592;BME280;36548;50.506;30.834;2022-11-18T04:25:37;99038.07;;;0.36;58.68
50592;BME280;36548;50.506;30.834;2022-11-18T04:26:47;99034.58;;;0.36;58.43
50592;BME280;36548;50.506;30.834;2022-11-18T04:28:03;99030.69;;;0.44;58.72
50592;BME280;36548;50.506;30.834;2022-11-18T04:29:13;99042.57;;;0.34;58.79
50592;BME280;36548;50.506;30.834;2022-11-18T04:30:48;99030.51;;;0.49;58.57
50592;BME280;36548;50.506;30.834;2022-11-18T04:32:00;99044.16;;;0.38;58.22
50592;BME280;36548;50.506;30.834;2022-11-18T04:33:16;99023.44;;;0.49;58.29
50592;BME280;36548;50.506;30.834;2022-11-18T04:34:25;99037.16;;;0.37;57.74
50592;BME280;36548;50.506;30.834;2022-11-18T04:35:42;99024.48;;;0.45;57.63
50592;BME280;36548;50.506;30.834;2022-11-18T04:36:53;99036.38;;;0.35;57.84
50592;BME280;36548;50.506;30.834;2022-11-18T04:38:08;99034.34;;;0.42;57.14
50592;BME280;36548;50.506;30.834;2022-11-18T04:39:17;99045.41;;;0.29;57.67
50592;BME280;36548;50.506;30.834;2022-11-18T04:40:33;99033.98;;;0.29;57.16
50592;BME280;36548;50.506;30.834;2022-11-18T04:41:43;99040.64;;;0.17;57.55
50592;BME280;36548;50.506;30.834;2022-11-18T04:43:10;99039.90;;;0.13;57.08
50592;BME280;36548;50.506;30.834;2022-11-18T04:44:19;99041.58;;;-0.06;56.85
50592;BME280;36548;50.506;30.834;2022-11-18T04:45:53;99037.67;;;-0.18;56.59
50592;BME280;36548;50.506;30.834;2022-11-18T04:47:04;99056.70;;;-0.33;57.05
50592;BME280;36548;50.506;30.834;2022-11-18T04:48:21;99053.23;;;-0.34;57.42
50592;BME280;36548;50.506;30.834;2022-11-18T04:49:31;99048.23;;;-0.42;58.06
50592;BME280;36548;50.506;30.834;2022-11-18T04:50:46;99048.20;;;-0.40;58.18
50592;BME280;36548;50.506;30.834;2022-11-18T04:51:55;99051.97;;;-0.47;58.61
50592;BME280;36548;50.506;30.834;2022-11-18T04:53:11;99048.73;;;-0.32;58.95
50592;BME280;36548;50.506;30.834;2022-11-18T04:54:21;99058.69;;;-0.39;58.77
50592;BME280;36548;50.506;30.834;2022-11-18T04:55:34;99060.35;;;-0.36;58.61
50592;BME280;36548;50.506;30.834;2022-11-18T04:56:43;99061.20;;;-0.36;58.22
50592;BME280;36548;50.506;30.834;2022-11-18T04:57:54;99061.14;;;-0.34;58.55
50592;BME280;36548;50.506;30.834;2022-11-18T04:59:11;99052.62;;;-0.19;58.78
50592;BME280;36548;50.506;30.834;2022-11-18T05:00:21;99058.30;;;-0.29;58.22
50592;BME280;36548;50.506;30.834;2022-11-18T05:01:36;99054.34;;;-0.18;58.44
50592;BME280;36548;50.506;30.834;2022-11-18T05:02:45;99053.98;;;-0.30;58.46
50592;BME280;36548;50.506;30.834;2022-11-18T05:03:55;99063.33;;;-0.45;57.77
50592;BME280;36548;50.506;30.834;2022-11-18T05:05:10;99059.06;;;-0.26;58.81
50592;BME280;36548;50.506;30.834;2022-11-18T05:06:27;99065.44;;;-0.31;58.85
50592;BME280;36548;50.506;30.834;2022-11-18T05:07:40;99073.16;;;-0.27;58.58
50592;BME280;36548;50.506;30.834;2022-11-18T05:08:57;99073.49;;;-0.12;58.19
50592;BME280;36548;50.506;30.834;2022-11-18T05:10:07;99074.88;;;-0.26;58.05
50592;BME280;36548;50.506;30.834;2022-11-18T05:11:22;99084.20;;;-0.17;58.15
50592;BME280;36548;50.506;30.834;2022-11-18T05:12:49;99083.14;;;-0.35;58.09
50592;BME280;36548;50.506;30.834;2022-11-18T05:14:06;99075.44;;;-0.18;58.83
50592;BME280;36548;50.506;30.834;2022-11-18T05:15:15;99084.58;;;-0.26;58.64
50592;BME280;36548;50.506;30.834;2022-11-18T05:16:50;99083.84;;;-0.08;58.73
50592;BME280;36548;50.506;30.834;2022-11-18T05:17:59;99091.08;;;-0.13;58.59
50592;BME280;36548;50.506;30.834;2022-11-18T05:19:09;99090.09;;;-0.10;57.63
50592;BME280;36548;50.506;30.834;2022-11-18T05:20:25;99090.95;;;-0.10;57.26
50592;BME280;36548;50.506;30.834;2022-11-18T05:21:34;99085.43;;;-0.26;57.08
50592;BME280;36548;50.506;30.834;2022-11-18T05:22:49;99089.60;;;-0.20;57.56
50592;BME280;36548;50.506;30.834;2022-11-18T05:23:58;99096.89;;;-0.27;58.11
50592;BME280;36548;50.506;30.834;2022-11-18T05:25:09;99089.67;;;-0.22;58.36
50592;BME280;36548;50.506;30.834;2022-11-18T05:26:19;99097.45;;;-0.19;57.75
50592;BME280;36548;50.506;30.834;2022-11-18T05:27:37;99094.20;;;-0.03;58.13
50592;BME280;36548;50.506;30.834;2022-11-18T05:28:45;99091.95;;;-0.12;57.60
50592;BME280;36548;50.506;30.834;2022-11-18T05:29:55;99101.50;;;-0.10;57.76
50592;BME280;36548;50.506;30.834;2022-11-18T05:31:30;99094.63;;;0.08;57.92
50592;BME280;36548;50.506;30.834;2022-11-18T05:32:39;99101.83;;;0.05;57.73
50592;BME280;36548;50.506;30.834;2022-11-18T05:33:55;99098.84;;;0.14;56.55
50592;BME280;36548;50.506;30.834;2022-11-18T05:35:05;99100.23;;;0.01;56.18
50592;BME280;36548;50.506;30.834;2022-11-18T05:36:17;99110.85;;;-0.01;56.47
50592;BME280;36548;50.506;30.834;2022-11-18T05:37:30;99108.28;;;-0.03;56.39
50592;BME280;36548;50.506;30.834;2022-11-18T05:38:45;99102.61;;;0.07;56.72
50592;BME280;36548;50.506;30.834;2022-11-18T05:39:54;99102.88;;;0.01;57.05
50592;BME280;36548;50.506;30.834;2022-11-18T05:41:04;99108.02;;;0.04;57.01
50592;BME280;36548;50.506;30.834;2022-11-18T05:42:19;99098.57;;;0.20;56.83
50592;BME280;36548;50.506;30.834;2022-11-18T05:43:47;99107.73;;;0.11;56.50
50592;BME280;36548;50.506;30.834;2022-11-18T05:44:58;99108.64;;;0.10;56.13
50592;BME280;36548;50.506;30.834;2022-11-18T05:46:16;99112.94;;;0.13;56.49
50592;BME280;36548;50.506;30.834;2022-11-18T05:47:25;99111.15;;;0.13;55.63
50592;BME280;36548;50.506;30.834;2022-11-18T05:48:43;99116.06;;;0.23;55.68
50592;BME280;36548;50.506;30.834;2022-11-18T05:49:52;99117.31;;;0.14;55.75
50592;BME280;36548;50.506;30.834;2022-11-18T05:51:07;99122.06;;;0.26;55.82
50592;BME280;36548;50.506;30.834;2022-11-18T05:52:16;99117.05;;;0.20;55.96
50592;BME280;36548;50.506;30.834;2022-11-18T05:53:26;99120.37;;;0.25;56.18
50592;BME280;36548;50.506;30.834;2022-11-18T05:54:46;99114.33;;;0.44;56.17
50592;BME280;36548;50.506;30.834;2022-11-18T05:57:20;99117.37;;;0.55;55.79
50592;BME280;36548;50.506;30.834;2022-11-18T05:58:29;99118.48;;;0.49;55.67
50592;BME280;36548;50.506;30.834;2022-11-18T05:59:44;99111.05;;;0.59;55.27
50592;BME280;36548;50.506;30.834;2022-11-18T06:00:55;99115.78;;;0.51;55.49
50592;BME280;36548;50.506;30.834;2022-11-18T06:02:20;99115.61;;;0.56;55.46
50592;BME280;36548;50.506;30.834;2022-11-18T06:03:37;99122.08;;;0.69;54.97
50592;BME280;36548;50.506;30.834;2022-11-18T06:04:58;99115.48;;;0.59;54.95
50592;BME280;36548;50.506;30.834;2022-11-18T06:06:16;99119.30;;;0.72;55.09
50592;BME280;36548;50.506;30.834;2022-11-18T06:07:33;99127.70;;;0.61;54.84
50592;BME280;36548;50.506;30.834;2022-11-18T06:10:06;99121.67;;;0.58;54.81
50592;BME280;36548;50.506;30.834;2022-11-18T06:11:22;99119.36;;;0.71;54.91
50592;BME280;36548;50.506;30.834;2022-11-18T06:12:34;99128.55;;;0.62;54.72
50592;BME280;36548;50.506;30.834;2022-11-18T06:16:58;99120.31;;;0.70;54.47
50592;BME280;36548;50.506;30.834;2022-11-18T06:18:23;99133.05;;;0.60;54.48
50592;BME280;36548;50.506;30.834;2022-11-18T06:19:38;99126.38;;;0.72;54.74
50592;BME280;36548;50.506;30.834;2022-11-18T06:20:47;99137.28;;;0.64;54.75
50592;BME280;36548;50.506;30.834;2022-11-18T06:22:03;99135.82;;;0.77;54.89
50592;BME280;36548;50.506;30.834;2022-11-18T06:23:12;99139.66;;;0.70;54.93
50592;BME280;36548;50.506;30.834;2022-11-18T06:24:23;99143.88;;;0.74;54.83
50592;BME280;36548;50.506;30.834;2022-11-18T06:25:39;99134.56;;;0.86;54.84
50592;BME280;36548;50.506;30.834;2022-11-18T06:26:49;99136.63;;;0.79;54.84
50592;BME280;36548;50.506;30.834;2022-11-18T06:28:06;99126.46;;;0.91;54.54
50592;BME280;36548;50.506;30.834;2022-11-18T06:29:17;99132.27;;;0.78;54.34
50592;BME280;36548;50.506;30.834;2022-11-18T06:30:54;99132.87;;;0.85;53.94
50592;BME280;36548;50.506;30.834;2022-11-18T06:32:04;99128.10;;;0.73;54.44
50592;BME280;36548;50.506;30.834;2022-11-18T06:33:20;99134.63;;;0.84;54.76
50592;BME280;36548;50.506;30.834;2022-11-18T06:34:29;99133.45;;;0.71;53.91
50592;BME280;36548;50.506;30.834;2022-11-18T06:35:44;99137.55;;;0.78;54.21
50592;BME280;36548;50.506;30.834;2022-11-18T06:36:55;99135.34;;;0.67;54.70
50592;BME280;36548;50.506;30.834;2022-11-18T06:38:10;99135.65;;;0.82;54.98
50592;BME280;36548;50.506;30.834;2022-11-18T06:39:19;99136.03;;;0.73;54.56
50592;BME280;36548;50.506;30.834;2022-11-18T06:40:29;99143.07;;;0.72;54.36
50592;BME280;36548;50.506;30.834;2022-11-18T06:41:45;99142.77;;;0.80;54.51
50592;BME280;36548;50.506;30.834;2022-11-18T06:42:54;99148.35;;;0.72;54.88
50592;BME280;36548;50.506;30.834;2022-11-18T06:44:27;99142.48;;;0.86;54.70
50592;BME280;36548;50.506;30.834;2022-11-18T06:45:36;99150.69;;;0.80;54.71
50592;BME280;36548;50.506;30.834;2022-11-18T06:46:53;99136.15;;;0.90;54.14
50592;BME280;36548;50.506;30.834;2022-11-18T06:48:05;99147.20;;;0.79;54.48
50592;BME280;36548;50.506;30.834;2022-11-18T06:49:14;99144.42;;;0.82;54.43
50592;BME280;36548;50.506;30.834;2022-11-18T06:50:29;99142.45;;;0.88;53.68
50592;BME280;36548;50.506;30.834;2022-11-18T06:51:57;99147.30;;;0.76;54.31
50592;BME280;36548;50.506;30.834;2022-11-18T06:53:05;99152.66;;;0.75;54.16
50592;BME280;36548;50.506;30.834;2022-11-18T06:54:20;99151.36;;;0.85;54.30
50592;BME280;36548;50.506;30.834;2022-11-18T06:55:29;99148.48;;;0.69;53.98
50592;BME280;36548;50.506;30.834;2022-11-18T06:56:44;99161.19;;;0.81;54.63
50592;BME280;36548;50.506;30.834;2022-11-18T06:57:55;99165.86;;;0.75;54.53
50592;BME280;36548;50.506;30.834;2022-11-18T06:59:11;99157.42;;;0.87;54.24
50592;BME280;36548;50.506;30.834;2022-11-18T07:00:21;99152.41;;;0.81;54.18
50592;BME280;36548;50.506;30.834;2022-11-18T07:01:38;99155.31;;;0.95;53.92
50592;BME280;36548;50.506;30.834;2022-11-18T07:02:51;99160.41;;;0.79;52.55
50592;BME280;36548;50.506;30.834;2022-11-18T07:04:06;99159.48;;;0.58;52.54
50592;BME280;36548;50.506;30.834;2022-11-18T07:05:15;99167.81;;;0.49;53.29
50592;BME280;36548;50.506;30.834;2022-11-18T07:06:27;99170.52;;;0.47;53.83
50592;BME280;36548;50.506;30.834;2022-11-18T07:07:43;99162.87;;;0.62;54.21
50592;BME280;36548;50.506;30.834;2022-11-18T07:08:54;99171.91;;;0.56;54.29
50592;BME280;36548;50.506;30.834;2022-11-18T07:10:04;99177.00;;;0.61;54.31
50592;BME280;36548;50.506;30.834;2022-11-18T07:11:15;99177.67;;;0.66;54.10
50592;BME280;36548;50.506;30.834;2022-11-18T07:12:31;99174.39;;;0.81;53.94
50592;BME280;36548;50.506;30.834;2022-11-18T07:13:41;99162.37;;;0.74;53.79
50592;BME280;36548;50.506;30.834;2022-11-18T07:14:56;99156.51;;;0.88;53.39
50592;BME280;36548;50.506;30.834;2022-11-18T07:16:10;99164.74;;;0.80;53.39
50592;BME280;36548;50.506;30.834;2022-11-18T07:17:29;99166.02;;;0.92;53.30
50592;BME280;36548;50.506;30.834;2022-11-18T07:18:39;99163.63;;;0.86;53.45
50592;BME280;36548;50.506;30.834;2022-11-18T07:19:56;99158.77;;;0.97;53.25
50592;BME280;36548;50.506;30.834;2022-11-18T07:22:26;99166.28;;;1.07;52.93
50592;BME280;36548;50.506;30.834;2022-11-18T07:23:36;99170.97;;;1.00;52.97
50592;BME280;36548;50.506;30.834;2022-11-18T07:24:52;99169.52;;;1.13;52.97
50592;BME280;36548;50.506;30.834;2022-11-18T07:26:01;99165.36;;;1.08;52.91
50592;BME280;36548;50.506;30.834;2022-11-18T07:27:16;99179.64;;;1.24;52.80
50592;BME280;36548;50.506;30.834;2022-11-18T07:28:26;99179.18;;;1.14;52.50
50592;BME280;36548;50.506;30.834;2022-11-18T07:29:42;99178.80;;;1.24;52.24
50592;BME280;36548;50.506;30.834;2022-11-18T07:30:51;99173.16;;;1.11;52.14
50592;BME280;36548;50.506;30.834;2022-11-18T07:32:00;99171.70;;;1.04;52.39
50592;BME280;36548;50.506;30.834;2022-11-18T07:33:16;99174.14;;;1.08;52.22
50592;BME280;36548;50.506;30.834;2022-11-18T07:34:24;99167.75;;;0.93;52.46
50592;BME280;36548;50.506;30.834;2022-11-18T07:36:01;99174.55;;;0.99;53.06
50592;BME280;36548;50.506;30.834;2022-11-18T07:37:10;99172.22;;;0.91;53.56
50592;BME280;36548;50.506;30.834;2022-11-18T07:38:19;99178.25;;;0.95;53.63
50592;BME280;36548;50.506;30.834;2022-11-18T07:39:35;99174.41;;;1.02;52.35
50592;BME280;36548;50.506;30.834;2022-11-18T07:40:44;99177.78;;;0.85;52.77
50592;BME280;36548;50.506;30.834;2022-11-18T07:42:00;99180.83;;;0.96;53.70
50592;BME280;36548;50.506;30.834;2022-11-18T07:43:09;99185.50;;;0.90;53.80
50592;BME280;36548;50.506;30.834;2022-11-18T07:44:24;99181.29;;;1.06;53.72